createdAt,value
2023-04-01T00:00:07.331Z,96.10
2023-04-01T00:02:41.005Z,91.80
2023-04-01T00:05:10.554Z,89.30
2023-04-01T00:07:38.116Z,126.40
2023-04-01T00:10:08.202Z,132.60
2023-04-01T00:12:35.669Z,148.10
2023-04-01T00:15:03.243Z,129.70
2023-04-01T00:17:30.781Z,115.00
2023-04-01T00:19:57.526Z,121.60
2023-04-01T00:22:25.095Z,120.80
2023-04-01T00:24:51.840Z,119.80
2023-04-01T00:27:18.488Z,133.90
2023-04-01T00:29:46.012Z,130.10
2023-04-01T00:32:13.019Z,131.90
2023-04-01T00:34:40.234Z,125.80
2023-04-01T00:37:08.206Z,117.20
2023-04-01T00:39:35.146Z,154.50
2023-04-01T00:42:03.008Z,129.80
2023-04-01T00:44:32.424Z,130.50
2023-04-01T00:47:01.694Z,120.40
2023-04-01T00:49:34.070Z,110.50
2023-04-01T00:52:02.252Z,115.50
2023-04-01T00:54:29.772Z,109.60
2023-04-01T00:56:59.887Z,99.00
2023-04-01T00:59:34.858Z,105.80
2023-04-01T01:02:03.169Z,97.20
2023-04-01T01:04:32.247Z,94.30
2023-04-01T01:07:05.049Z,96.60
2023-04-01T01:09:59.549Z,72.50
2023-04-01T01:12:40.528Z,81.50
2023-04-01T01:15:31.123Z,88.40
2023-04-01T01:18:21.358Z,81.50
2023-04-01T01:21:03.071Z,90.90
2023-04-01T01:23:56.742Z,97.50
2023-04-01T01:27:02.402Z,93.00
2023-04-01T01:30:00.355Z,85.40
2023-04-01T01:32:43.892Z,83.80
2023-04-01T01:35:19.933Z,96.90
2023-04-01T01:37:47.564Z,83.20
2023-04-01T01:40:14.541Z,90.70
2023-04-01T01:42:47.206Z,76.70
2023-04-01T01:45:14.884Z,83.00
2023-04-01T01:47:42.205Z,81.90
2023-04-01T01:50:09.093Z,89.10
2023-04-01T01:52:37.222Z,85.60
2023-04-01T01:55:31.217Z,88.40
2023-04-01T01:58:00.411Z,91.30
2023-04-01T02:00:27.819Z,97.50
2023-04-01T02:02:54.951Z,84.50
2023-04-01T02:05:26.100Z,77.40
2023-04-01T02:08:03.857Z,73.50
2023-04-01T02:10:32.671Z,78.40
2023-04-01T02:13:01.530Z,79.00
2023-04-01T02:15:31.113Z,68.40
2023-04-01T02:18:00.354Z,58.90
2023-04-01T02:20:27.327Z,74.60
2023-04-01T02:22:55.954Z,76.80
2023-04-01T02:25:25.708Z,69.20
2023-04-01T02:27:53.567Z,74.20
2023-04-01T02:30:20.379Z,74.40
2023-04-01T02:32:47.414Z,71.40
2023-04-01T02:35:15.759Z,75.50
2023-04-01T02:37:42.875Z,66.30
2023-04-01T02:40:14.899Z,75.70
2023-04-01T02:42:42.218Z,76.20
2023-04-01T02:45:10.039Z,76.30
2023-04-01T02:47:38.528Z,79.10
2023-04-01T02:50:07.218Z,74.00
2023-04-01T02:52:33.961Z,78.20
2023-04-01T02:55:01.031Z,84.00
2023-04-01T02:57:28.599Z,68.20
2023-04-01T02:59:55.285Z,76.40
2023-04-01T03:02:21.962Z,72.90
2023-04-01T03:04:48.841Z,87.00
2023-04-01T03:07:15.996Z,73.40
2023-04-01T03:09:43.610Z,74.80
2023-04-01T03:12:10.671Z,74.70
2023-04-01T03:14:42.022Z,80.20
2023-04-01T03:17:08.557Z,76.80
2023-04-01T03:19:35.802Z,76.40
2023-04-01T03:22:04.892Z,68.50
2023-04-01T03:24:31.700Z,77.90
2023-04-01T03:27:00.021Z,81.60
2023-04-01T03:29:26.759Z,72.60
2023-04-01T03:31:53.518Z,80.70
2023-04-01T03:34:20.785Z,77.90
2023-04-01T03:36:47.727Z,86.10
2023-04-01T03:39:22.314Z,91.30
2023-04-01T03:41:49.120Z,80.90
2023-04-01T03:44:15.900Z,83.10
2023-04-01T03:46:42.703Z,94.20
2023-04-01T03:49:11.870Z,80.50
2023-04-01T03:51:44.477Z,84.20
2023-04-01T03:54:11.757Z,85.10
2023-04-01T03:56:38.782Z,84.20
2023-04-01T03:59:07.265Z,88.50
2023-04-01T04:01:33.912Z,80.40
2023-04-01T04:04:01.897Z,87.00
2023-04-01T04:06:33.156Z,76.20
2023-04-01T04:09:00.263Z,68.10
2023-04-01T04:11:27.138Z,80.10
2023-04-01T04:13:57.256Z,80.30
2023-04-01T04:16:25.555Z,84.90
2023-04-01T04:18:59.132Z,89.20
2023-04-01T04:21:25.941Z,78.50
2023-04-01T04:23:53.060Z,92.00
2023-04-01T04:26:20.752Z,83.60
2023-04-01T04:28:56.397Z,72.20
2023-04-01T04:31:24.100Z,78.30
2023-04-01T04:33:52.218Z,69.20
2023-04-01T04:36:19.216Z,80.50
2023-04-01T04:38:46.787Z,82.70
2023-04-01T04:41:14.807Z,83.70
2023-04-01T04:43:51.889Z,84.00
2023-04-01T04:46:18.962Z,84.30
2023-04-01T04:48:46.039Z,88.60
2023-04-01T04:51:16.888Z,90.80
2023-04-01T04:53:46.278Z,67.40
2023-04-01T04:56:19.237Z,75.00
2023-04-01T04:58:57.990Z,75.70
2023-04-01T05:01:27.084Z,77.50
2023-04-01T05:03:53.777Z,85.20
2023-04-01T05:06:23.391Z,82.90
2023-04-01T05:08:51.064Z,77.70
2023-04-01T05:11:19.899Z,76.10
2023-04-01T05:13:46.918Z,57.10
2023-04-01T05:16:18.493Z,67.10
2023-04-01T05:18:47.536Z,65.30
2023-04-01T05:21:15.259Z,57.00
2023-04-01T05:23:43.654Z,57.50
2023-04-01T05:26:12.435Z,52.70
2023-04-01T05:28:39.301Z,52.40
2023-04-01T05:31:07.459Z,49.20
2023-04-01T05:33:43.117Z,48.40
2023-04-01T05:36:12.173Z,50.90
2023-04-01T05:38:39.014Z,56.30
2023-04-01T05:41:06.709Z,54.50
2023-04-01T05:43:39.702Z,52.40
2023-04-01T05:46:26.405Z,53.40
2023-04-01T05:48:58.813Z,46.20
2023-04-01T05:51:26.119Z,50.30
2023-04-01T05:53:52.913Z,44.20
2023-04-01T05:56:19.930Z,53.60
2023-04-01T05:58:51.929Z,54.30
2023-04-01T06:01:19.115Z,44.50
2023-04-01T06:03:47.411Z,46.00
2023-04-01T06:06:16.264Z,46.30
2023-04-01T06:08:46.866Z,48.40
2023-04-01T06:11:31.890Z,46.60
2023-04-01T06:14:05.984Z,45.20
2023-04-01T06:16:57.128Z,41.00
2023-04-01T06:19:46.340Z,43.70
2023-04-01T06:22:28.338Z,44.30
2023-04-01T06:25:20.299Z,50.20
2023-04-01T06:27:51.032Z,44.00
2023-04-01T06:30:55.984Z,40.10
2023-04-01T06:33:58.933Z,41.60
2023-04-01T06:36:32.041Z,39.40
2023-04-01T06:39:03.618Z,42.30
2023-04-01T06:41:58.770Z,36.90
2023-04-01T06:44:44.594Z,37.50
2023-04-01T06:48:29.208Z,40.60
2023-04-01T06:51:31.731Z,41.50
2023-04-01T06:54:37.892Z,36.60
2023-04-01T06:57:33.450Z,37.60
2023-04-01T07:00:01.444Z,42.90
2023-04-01T07:02:39.866Z,41.30
2023-04-01T07:05:06.602Z,38.40
2023-04-01T07:07:48.939Z,41.00
2023-04-01T07:13:39.661Z,38.10
2023-04-01T07:16:21.189Z,40.30
2023-04-01T07:19:10.793Z,32.10
2023-04-01T07:21:55.976Z,32.20
2023-04-01T07:24:37.903Z,32.40
2023-04-01T07:27:12.128Z,37.70
2023-04-01T07:29:40.978Z,27.00
2023-04-01T07:32:22.849Z,36.30
2023-04-01T07:35:25.837Z,38.70
2023-04-01T07:38:13.943Z,31.50
2023-04-01T07:41:00.864Z,32.40
2023-04-01T07:43:36.991Z,37.40
2023-04-01T07:46:41.191Z,36.40
2023-04-01T07:49:21.925Z,33.70
2023-04-01T07:52:07.246Z,33.70
2023-04-01T07:55:00.527Z,34.50
2023-04-01T07:57:33.749Z,36.00
2023-04-01T08:00:23.419Z,36.40
2023-04-01T08:03:08.736Z,38.30
2023-04-01T08:05:55.788Z,29.90
2023-04-01T08:08:37.047Z,32.90
2023-04-01T08:11:34.619Z,36.50
2023-04-01T08:14:39.897Z,39.80
2023-04-01T08:17:37.524Z,38.00
2023-04-01T08:20:32.788Z,44.70
2023-04-01T08:23:14.349Z,51.70
2023-04-01T08:26:00.458Z,55.00
2023-04-01T08:28:39.962Z,54.70
2023-04-01T08:31:19.758Z,59.20
2023-04-01T08:33:47.958Z,63.60
2023-04-01T08:36:14.677Z,63.80
2023-04-01T08:39:07.396Z,71.10
2023-04-01T08:41:37.292Z,61.40
2023-04-01T08:45:02.436Z,65.90
2023-04-01T08:47:49.510Z,70.40
2023-04-01T08:50:34.588Z,67.40
2023-04-01T08:53:53.918Z,74.00
2023-04-01T08:56:23.980Z,82.90
2023-04-01T08:59:13.321Z,87.00
2023-04-01T09:01:59.219Z,80.00
2023-04-01T09:05:24.944Z,81.50
2023-04-01T09:08:04.081Z,75.60
2023-04-01T09:10:44.954Z,85.50
2023-04-01T09:14:06.106Z,81.90
2023-04-01T09:17:05.877Z,80.00
2023-04-01T09:22:41.593Z,82.60
2023-04-01T09:25:39.669Z,65.30
2023-04-01T09:28:09.396Z,64.20
2023-04-01T09:30:58.234Z,55.70
2023-04-01T09:34:06.926Z,64.00
2023-04-01T09:37:23.772Z,52.40
2023-04-01T09:40:12.907Z,51.30
2023-04-01T09:42:44.259Z,49.10
2023-04-01T09:45:47.951Z,49.80
2023-04-01T09:48:49.944Z,47.00
2023-04-01T09:51:31.416Z,51.80
2023-04-01T09:54:17.656Z,50.80
2023-04-01T09:57:13.691Z,46.70
2023-04-01T09:59:43.367Z,41.50
2023-04-01T10:02:53.679Z,46.40
2023-04-01T10:05:36.789Z,55.80
2023-04-01T10:08:22.263Z,37.60
2023-04-01T10:11:17.542Z,45.80
2023-04-01T10:14:15.204Z,39.30
2023-04-01T10:17:09.907Z,38.60
2023-04-01T10:20:02.958Z,40.60
2023-04-01T10:22:54.910Z,36.40
2023-04-01T10:25:45.814Z,35.00
2023-04-01T10:28:56.656Z,37.00
2023-04-01T10:32:18.083Z,31.40
2023-04-01T10:34:54.091Z,29.20
2023-04-01T10:37:51.089Z,27.80
2023-04-01T10:40:27.134Z,28.40
2023-04-01T10:43:27.472Z,32.30
2023-04-01T10:46:33.331Z,31.00
2023-04-01T10:49:23.861Z,31.90
2023-04-01T10:52:02.398Z,34.00
2023-04-01T10:55:19.961Z,28.60
2023-04-01T10:58:11.750Z,28.70
2023-04-01T11:01:42.439Z,26.40
2023-04-01T11:04:46.863Z,28.30
2023-04-01T11:08:05.329Z,27.70
2023-04-01T11:10:56.134Z,30.80
2023-04-01T11:13:29.820Z,25.00
2023-04-01T11:16:55.032Z,20.80
2023-04-01T11:19:46.984Z,23.80
2023-04-01T11:22:23.340Z,26.90
2023-04-01T11:24:55.686Z,22.20
2023-04-01T11:27:56.079Z,25.10
2023-04-01T11:30:29.842Z,22.10
2023-04-01T11:33:48.046Z,21.20
2023-04-01T11:36:15.087Z,20.30
2023-04-01T11:39:03.236Z,20.80
2023-04-01T11:42:15.058Z,18.40
2023-04-01T11:45:33.592Z,20.50
2023-04-01T11:48:26.491Z,16.60
2023-04-01T11:51:15.579Z,17.80
2023-04-01T11:54:17.303Z,18.00
2023-04-01T11:59:43.756Z,21.00
2023-04-01T12:03:03.414Z,20.80
2023-04-01T12:05:49.401Z,17.40
2023-04-01T12:08:42.493Z,18.90
2023-04-01T12:11:41.547Z,14.60
2023-04-01T12:14:23.644Z,23.10
2023-04-01T12:17:08.859Z,28.50
2023-04-01T12:19:44.768Z,19.20
2023-04-01T12:22:51.592Z,18.90
2023-04-01T12:25:23.562Z,20.80
2023-04-01T12:28:12.897Z,23.20
2023-04-01T12:31:19.627Z,17.00
2023-04-01T12:34:12.452Z,15.60
2023-04-01T12:36:59.056Z,13.70
2023-04-01T12:39:53.222Z,14.50
2023-04-01T12:42:37.126Z,14.90
2023-04-01T12:45:17.684Z,12.50
2023-04-01T12:47:51.889Z,19.00
2023-04-01T12:50:35.184Z,13.50
2023-04-01T12:53:13.271Z,13.80
2023-04-01T12:55:45.869Z,11.10
2023-04-01T12:58:29.855Z,13.40
2023-04-01T13:01:01.892Z,12.20
2023-04-01T13:03:36.807Z,14.10
2023-04-01T13:06:27.013Z,8.60
2023-04-01T13:09:17.899Z,12.10
2023-04-01T13:12:04.556Z,10.70
2023-04-01T13:14:57.552Z,14.50
2023-04-01T13:17:41.570Z,15.70
2023-04-01T13:20:41.664Z,9.60
2023-04-01T13:23:26.007Z,9.80
2023-04-01T13:26:14.750Z,9.40
2023-04-01T13:28:51.752Z,12.70
2023-04-01T13:31:27.112Z,10.80
2023-04-01T13:34:06.439Z,10.80
2023-04-01T13:36:42.740Z,9.50
2023-04-01T13:39:37.165Z,13.30
2023-04-01T13:42:16.309Z,9.70
2023-04-01T13:44:46.534Z,8.50
2023-04-01T13:47:37.071Z,13.30
2023-04-01T13:50:25.902Z,8.90
2023-04-01T13:53:31.703Z,14.50
2023-04-01T13:56:15.554Z,11.00
2023-04-01T13:59:04.957Z,13.00
2023-04-01T14:01:54.127Z,11.60
2023-04-01T14:04:50.571Z,10.80
2023-04-01T14:07:48.535Z,10.50
2023-04-01T14:10:40.565Z,13.40
2023-04-01T14:13:28.529Z,12.40
2023-04-01T14:16:23.396Z,11.20
2023-04-01T14:19:04.302Z,10.80
2023-04-01T14:21:52.308Z,9.40
2023-04-01T14:25:02.977Z,10.40
2023-04-01T14:27:39.730Z,10.70
2023-04-01T14:30:27.508Z,9.40
2023-04-01T14:33:02.266Z,9.10
2023-04-01T14:35:39.652Z,11.20
2023-04-01T14:38:32.145Z,12.40
2023-04-01T14:41:17.185Z,11.70
2023-04-01T14:43:56.711Z,10.60
2023-04-01T14:46:28.474Z,11.20
2023-04-01T14:49:15.440Z,9.80
2023-04-01T14:51:43.444Z,11.80
2023-04-01T14:54:23.570Z,8.90
2023-04-01T14:57:11.125Z,11.90
2023-04-01T14:59:49.798Z,9.10
2023-04-01T15:02:29.898Z,12.00
2023-04-01T15:05:10.163Z,13.20
2023-04-01T15:07:58.825Z,17.00
2023-04-01T15:10:35.948Z,11.90
2023-04-01T15:13:20.696Z,10.30
2023-04-01T15:16:12.115Z,12.60
2023-04-01T15:19:18.200Z,13.80
2023-04-01T15:22:01.380Z,15.10
2023-04-01T15:25:11.731Z,11.90
2023-04-01T15:27:45.967Z,14.10
2023-04-01T15:30:38.421Z,15.40
2023-04-01T15:33:42.112Z,17.60
2023-04-01T15:36:32.214Z,13.20
2023-04-01T15:39:06.902Z,10.30
2023-04-01T15:41:41.632Z,12.80
2023-04-01T15:44:31.576Z,11.40
2023-04-01T15:46:59.762Z,10.40
2023-04-01T15:49:27.705Z,13.60
2023-04-01T15:52:12.475Z,14.20
2023-04-01T15:55:02.748Z,13.90
2023-04-01T15:57:36.940Z,14.00
2023-04-01T16:00:30.923Z,11.30
2023-04-01T16:03:22.366Z,16.80
2023-04-01T16:06:12.186Z,19.10
2023-04-01T16:09:09.682Z,17.50
2023-04-01T16:11:59.177Z,16.00
2023-04-01T16:14:57.758Z,19.00
2023-04-01T16:17:29.866Z,21.80
2023-04-01T16:20:20.670Z,23.90
2023-04-01T16:22:58.076Z,17.00
2023-04-01T16:25:33.801Z,17.50
2023-04-01T16:28:15.299Z,21.80
2023-04-01T16:31:05.561Z,17.30
2023-04-01T16:33:51.092Z,17.30
2023-04-01T16:36:42.738Z,18.60
2023-04-01T16:39:27.836Z,22.40
2023-04-01T16:42:08.066Z,25.30
2023-04-01T16:44:50.970Z,26.80
2023-04-01T16:47:22.160Z,29.50
2023-04-01T16:49:56.580Z,31.50
2023-04-01T16:52:32.116Z,31.90
2023-04-01T16:55:20.996Z,26.90
2023-04-01T16:57:52.099Z,25.50
2023-04-01T17:00:28.292Z,21.50
2023-04-01T17:03:13.147Z,30.20
2023-04-01T17:06:10.374Z,23.80
2023-04-01T17:08:50.820Z,16.50
2023-04-01T17:11:23.890Z,18.00
2023-04-01T17:13:56.262Z,20.00
2023-04-01T17:16:46.984Z,18.80
2023-04-01T17:19:39.769Z,20.00
2023-04-01T17:22:25.566Z,19.00
2023-04-01T17:25:21.980Z,24.60
2023-04-01T17:28:08.625Z,21.10
2023-04-01T17:30:44.803Z,21.70
2023-04-01T17:33:37.538Z,21.30
2023-04-01T17:36:21.586Z,24.30
2023-04-01T17:39:15.045Z,24.70
2023-04-01T17:42:06.463Z,21.50
2023-04-01T17:44:43.857Z,22.00
2023-04-01T17:47:14.675Z,24.80
2023-04-01T17:49:58.016Z,23.50
2023-04-01T17:52:49.469Z,25.60
2023-04-01T17:55:29.289Z,31.60
2023-04-01T17:58:23.087Z,26.50
2023-04-01T18:01:25.573Z,25.80
2023-04-01T18:04:32.397Z,27.90
2023-04-01T18:07:06.926Z,26.40
2023-04-01T18:10:08.229Z,25.20
2023-04-01T18:12:45.068Z,28.40
2023-04-01T18:15:32.060Z,27.50
2023-04-01T18:18:19.099Z,26.10
2023-04-01T18:21:08.845Z,26.70
2023-04-01T18:23:59.096Z,23.40
2023-04-01T18:26:32.491Z,27.30
2023-04-01T18:29:05.487Z,25.00
2023-04-01T18:31:43.462Z,25.40
2023-04-01T18:34:48.853Z,24.10
2023-04-01T18:37:40.629Z,22.50
2023-04-01T18:40:16.903Z,25.10
2023-04-01T18:42:58.068Z,25.20
2023-04-01T18:48:19.301Z,22.50
2023-04-01T18:50:54.763Z,23.50
2023-04-01T18:53:35.643Z,19.40
2023-04-01T18:58:52.601Z,24.10
2023-04-01T19:01:23.813Z,19.90
2023-04-01T19:04:18.436Z,22.30
2023-04-01T19:06:52.815Z,22.40
2023-04-01T19:09:30.640Z,19.30
2023-04-01T19:12:24.677Z,22.50
2023-04-01T19:15:09.191Z,21.50
2023-04-01T19:18:00.121Z,27.70
2023-04-01T19:21:26.224Z,28.20
2023-04-01T19:24:18.437Z,24.40
2023-04-01T19:26:54.204Z,23.10
2023-04-01T19:29:28.023Z,19.40
2023-04-01T19:32:23.973Z,23.70
2023-04-01T19:34:58.253Z,21.40
2023-04-01T19:37:36.863Z,16.70
2023-04-01T19:40:20.501Z,20.20
2023-04-01T19:42:59.735Z,21.80
2023-04-01T19:45:48.993Z,17.20
2023-04-01T19:48:44.830Z,23.10
2023-04-01T19:51:21.996Z,21.20
2023-04-01T19:54:08.089Z,23.70
2023-04-01T19:57:14.700Z,26.50
2023-04-01T19:59:51.482Z,24.90
2023-04-01T20:02:44.577Z,22.00
2023-04-01T20:05:28.350Z,22.40
2023-04-01T20:08:09.450Z,26.70
2023-04-01T20:11:04.779Z,22.30
2023-04-01T20:13:42.950Z,27.00
2023-04-01T20:16:11.898Z,26.20
2023-04-01T20:19:01.353Z,25.10
2023-04-01T20:21:48.454Z,21.20
2023-04-01T20:24:43.378Z,25.40
2023-04-01T20:27:37.516Z,26.50
2023-04-01T20:30:45.839Z,28.40
2023-04-01T20:33:34.936Z,32.30
2023-04-01T20:36:30.595Z,27.10
2023-04-01T20:39:18.022Z,24.00
2023-04-01T20:42:22.979Z,24.60
2023-04-01T20:45:27.027Z,23.20
2023-04-01T20:47:57.836Z,27.50
2023-04-01T20:50:28.653Z,29.00
2023-04-01T20:55:59.037Z,26.70
2023-04-01T20:58:44.680Z,25.60
2023-04-01T21:01:31.527Z,26.00
2023-04-01T21:04:05.677Z,26.70
2023-04-01T21:06:53.730Z,23.00
2023-04-01T21:09:28.511Z,24.90
2023-04-01T21:12:24.837Z,27.00
2023-04-01T21:15:12.055Z,24.50
2023-04-01T21:18:03.843Z,24.60
2023-04-01T21:20:45.136Z,25.40
2023-04-01T21:24:01.162Z,28.00
2023-04-01T21:26:58.185Z,23.50
2023-04-01T21:29:41.710Z,23.00
2023-04-01T21:32:29.076Z,25.20
2023-04-01T21:35:16.633Z,29.40
2023-04-01T21:38:01.964Z,23.00
2023-04-01T21:41:09.431Z,22.40
2023-04-01T21:44:07.125Z,29.60
2023-04-01T21:47:10.000Z,24.80
2023-04-01T21:50:05.261Z,28.00
2023-04-01T21:52:42.793Z,29.20
2023-04-01T21:55:28.116Z,26.80
2023-04-01T21:58:20.614Z,25.00
2023-04-01T22:00:57.843Z,31.10
2023-04-01T22:03:47.568Z,27.90
2023-04-01T22:06:23.824Z,25.40
2023-04-01T22:09:13.110Z,28.50
2023-04-01T22:12:03.067Z,30.30
2023-04-01T22:14:43.249Z,27.00
2023-04-01T22:17:44.258Z,29.00
2023-04-01T22:20:46.152Z,27.50
2023-04-01T22:23:22.800Z,30.90
2023-04-01T22:26:11.895Z,23.60
2023-04-01T22:28:55.289Z,29.30
2023-04-01T22:31:34.704Z,30.10
2023-04-01T22:34:18.500Z,27.60
2023-04-01T22:36:49.330Z,23.20
2023-04-01T22:39:29.921Z,28.00
2023-04-01T22:42:17.471Z,24.20
2023-04-01T22:45:07.330Z,24.70
2023-04-01T22:48:04.957Z,34.70
2023-04-01T22:50:41.992Z,30.90
2023-04-01T22:53:24.650Z,33.20
2023-04-01T22:55:54.024Z,32.60
2023-04-01T22:58:28.292Z,33.70
2023-04-01T23:00:58.414Z,27.60
2023-04-01T23:03:32.003Z,31.40
2023-04-01T23:06:01.730Z,27.10
2023-04-01T23:09:01.936Z,26.40
2023-04-01T23:11:43.705Z,27.00
2023-04-01T23:14:11.772Z,31.10
2023-04-01T23:16:42.221Z,24.70
2023-04-01T23:19:55.661Z,33.10
2023-04-01T23:22:28.568Z,28.50
2023-04-01T23:25:01.839Z,34.40
2023-04-01T23:27:53.107Z,34.60
2023-04-01T23:30:41.416Z,28.90
2023-04-01T23:33:29.936Z,27.80
2023-04-01T23:36:08.789Z,30.90
2023-04-01T23:38:43.274Z,29.30
2023-04-01T23:41:29.219Z,33.20
2023-04-01T23:44:06.465Z,37.50
2023-04-01T23:46:36.632Z,34.50
2023-04-01T23:49:05.832Z,34.50
2023-04-01T23:51:39.792Z,31.50
2023-04-01T23:54:18.037Z,28.80
2023-04-01T23:56:54.890Z,29.50
2023-04-01T23:59:28.418Z,29.70
